Marion, VA (24354)

2:08 AM EDT on August 31, 2016 (GMT -0400)
The Bank of Marion | | Change Station

Elev 2182 ft 36.83 °N, 81.52 °W | Updated 6 seconds ago

Scattered Clouds
Scattered Clouds
67.1 °F
Feels Like 67.1 °F
N
0.9
Wind Variable Wind from SE
Gusts 2.0 mph

Today
High -- | Low -- °F
--% Chance of Precip.
Yesterday
High -- | Low -- °F
Precip. -- in
Pressure 30.18 in
Visibility 10.0 miles
Clouds Scattered Clouds 4700 ft
Scattered Clouds 7000 ft
Scattered Clouds 9000 ft
Dew Point 65 °F
Humidity 93%
Rainfall 0.00 in
Snow Depth Not available.
6:56 AM 7:55 PM
Waning Crescent, 1% visible
METAR KMKJ 310555Z AUTO 00000KT 10SM SCT047 SCT070 SCT090 20/19 A3018 RMK AO2 T01990191 10250 20195
Pressure 30.18 in
Visibility 10.0 miles
Clouds Scattered Clouds 4700 ft
Scattered Clouds 7000 ft
Scattered Clouds 9000 ft
Dew Point 65 °F
Humidity 93%
Rainfall 0.00 in
Snow Depth Not available.
6:56 AM 7:55 PM
Waning Crescent, 1% visible
METAR KMKJ 310555Z AUTO 00000KT 10SM SCT047 SCT070 SCT090 20/19 A3018 RMK AO2 T01990191 10250 20195

10-Day Weather Forecast

Almanac

Astronomy

Aug. 31, 2016 Rise Set
Actual Time
Civil Twilight
Nautical Twilight
Astronomical Twilight
Moon
Length of Visible Light
Length of Day
Tomorrow will be .
, % of the Moon is Illuminated

Today's Extremes

State Highs State Lows

Community

WunderPhotos

Upload Photos

1,936,040 photos uploaded!

WunderBlog® & News

Nearby

Air Quality

  Air Quality AQ Index Pollutant
Not available.

Snow Depth

Station Depth Elevation

Earthquake Activity

City Distance Mag. Time & Date
Minimum magnitude displayed is 2.5.

Coastal Water Temperatures

Place Temperature

Stations

Nearby Weather Stations

Station Location Temp. Windchill Dew Point Humidity Wind Precip. Elev Updated Type
                   

Watches & Warnings

There are currently no watches in effect.